Date,TemperatureHighF,TemperatureAvgF,TemperatureLowF,DewpointHighF,DewpointAvgF,DewpointLowF,HumidityHigh,HumidityAvg,HumidityLow,PressureMaxIn,PressureMinIn,WindSpeedMaxMPH,WindSpeedAvgMPH,GustSpeedMaxMPH,PrecipitationSumIn
2013-1-1,33.3,27.4,23.9,31.0,20.8,15.0,92,76,69,29.95,29.83,11,4,16,0.00
2013-1-2,25.4,22.6,18.7,19.0,16.5,13.0,84,77,68,30.09,29.92,11,5,17,0.00
2013-1-3,30.1,24.3,16.7,26.0,17.9,9.0,86,76,64,30.06,29.94,16,8,23,0.00
2013-1-4,31.4,28.8,26.8,25.0,20.7,18.0,84,72,60,30.07,29.92,24,11,32,0.00
2013-1-5,36.6,31.2,26.7,27.0,23.9,21.0,83,75,65,30.19,29.94,12,6,21,0.00
2013-1-6,37.6,35.5,33.7,33.0,30.5,28.0,91,82,71,30.06,29.78,13,7,19,0.01
2013-1-7,37.9,33.6,31.5,31.0,27.4,25.0,91,78,62,30.27,30.06,17,6,28,0.00
2013-1-8,43.1,36.3,30.0,30.0,25.5,23.0,78,66,46,30.14,30.06,15,6,19,0.00
2013-1-9,49.7,43.4,37.9,38.0,31.7,28.0,80,64,52,30.30,29.96,20,10,28,0.03
2013-1-10,44.2,37.2,27.2,33.0,28.6,24.0,93,73,45,30.43,30.05,9,2,17,0.00
2013-1-11,56.2,50.4,44.7,51.0,42.1,24.0,91,75,45,30.03,29.62,24,11,30,0.30
2013-1-12,61.4,56.7,51.0,57.0,51.7,48.0,92,83,74,29.82,29.66,14,7,21,0.00
2013-1-13,65.9,51.4,38.0,59.0,48.1,37.0,95,89,76,29.82,29.51,18,6,31,0.28
2013-1-14,37.6,31.0,28.9,36.0,25.1,21.0,95,79,71,30.28,29.84,15,4,21,0.00
2013-1-15,30.8,28.9,27.4,23.0,22.0,20.0,80,75,66,30.27,29.97,11,3,13,0.00
2013-1-16,37.1,32.7,28.7,27.0,23.2,20.0,79,68,55,29.98,29.71,16,5,24,0.00
2013-1-17,36.1,33.7,25.1,30.0,26.7,16.0,81,75,67,30.09,29.82,20,5,29,0.00
2013-1-18,37.4,28.3,21.2,20.0,15.1,9.0,72,58,48,30.32,29.91,25,9,37,0.00
2013-1-19,51.8,44.7,37.4,31.0,25.3,20.0,53,47,40,29.92,29.50,22,12,33,0.00
2013-1-20,49.5,29.7,23.1,34.0,17.8,11.0,68,62,50,29.99,29.45,26,9,44,0.00
2013-1-21,23.0,18.7,11.6,17.0,13.3,8.0,89,80,63,29.97,29.79,16,7,24,0.08
2013-1-22,12.7,9.9,7.8,8.0,1.5,-99.9,88,74,66,30.14,29.93,18,-13,27,0.00
2013-1-23,15.4,12.8,10.0,11.0,8.1,4.0,86,81,69,30.15,29.95,10,5,20,0.01
2013-1-24,20.2,16.6,9.9,15.0,5.7,-99.9,90,67,48,30.43,29.95,16,-15,24,0.02
2013-1-25,20.1,16.2,11.6,15.0,10.1,5.0,87,76,65,30.38,29.91,10,4,18,0.01
2013-1-26,25.5,22.5,17.0,23.0,18.4,14.0,92,84,72,30.31,29.94,9,3,13,0.05
2013-1-27,30.6,23.7,11.4,28.0,16.5,9.0,89,75,58,30.38,30.09,9,4,16,0.05
2013-1-28,49.9,41.8,30.4,48.0,39.6,26.0,96,91,82,30.11,29.75,22,9,35,0.18
2013-1-29,63.8,52.7,38.9,56.0,49.6,38.0,97,89,71,29.88,29.42,24,7,34,0.06
2013-1-30,66.8,58.6,38.4,57.0,51.5,34.0,95,78,65,29.41,28.94,27,13,39,0.35
2013-1-31,37.7,26.6,20.6,34.0,20.1,11.0,90,76,62,29.70,29.07,30,12,37,0.03
2013-2-1,21.3,16.9,14.6,16.0,3.5,-99.9,90,70,64,30.16,29.70,22,-64,29,0.01
2013-2-2,23.6,18.3,13.2,21.0,14.1,7.0,92,83,72,30.15,29.83,15,5,20,0.04
2013-2-3,21.8,20.3,19.3,20.0,16.0,13.0,92,83,73,29.87,29.73,18,5,23,0.00
2013-2-4,25.2,21.4,18.3,21.0,17.4,9.0,92,84,68,29.90,29.74,15,3,23,0.02
2013-2-5,29.2,24.7,21.5,25.0,21.2,19.0,92,86,74,29.79,29.70,7,2,10,0.00
2013-2-6,29.2,25.1,19.1,27.0,17.6,13.0,91,74,58,30.19,29.79,12,4,19,0.00
2013-2-7,46.0,34.1,21.2,29.0,21.8,13.0,77,61,45,30.16,29.70,20,5,26,0.00
2013-2-8,39.6,31.7,24.2,37.0,27.6,20.0,94,85,69,30.10,29.56,24,10,30,0.29
2013-2-9,28.7,24.4,19.9,22.0,19.6,17.0,88,82,72,30.29,30.11,18,5,25,0.00
2013-2-10,51.0,36.6,16.2,33.0,19.9,14.0,91,55,31,30.19,29.62,22,6,28,0.00
2013-2-11,52.6,41.8,34.0,44.0,33.9,26.0,87,74,64,29.72,29.47,22,12,33,0.00
2013-2-12,33.9,31.6,26.6,26.0,25.4,23.0,88,78,73,29.91,29.73,20,5,29,0.00
2013-2-13,34.1,29.5,25.6,28.0,24.4,23.0,89,81,69,29.77,29.61,8,2,11,0.00
2013-2-14,40.5,34.5,26.4,35.0,29.4,23.0,87,82,71,29.71,29.61,17,8,26,0.00
2013-2-15,37.1,31.7,26.9,29.0,24.2,18.0,81,74,66,29.95,29.72,15,4,28,0.00
2013-2-16,29.3,25.3,21.7,21.0,17.2,11.0,89,72,51,29.93,29.81,10,3,13,0.02
2013-2-17,22.4,16.8,9.7,19.0,3.1,-99.9,92,72,60,30.11,29.80,17,-79,20,0.00
2013-2-18,47.5,28.5,7.3,31.0,15.1,-99.9,85,61,47,30.13,29.57,23,-2,34,0.00
2013-2-19,49.8,32.8,19.7,39.0,27.1,14.0,92,80,50,29.79,29.39,28,12,39,0.18
2013-2-20,23.1,20.0,17.2,18.0,10.4,-99.9,91,73,63,30.07,29.79,17,-24,28,0.00
2013-2-21,22.6,20.6,17.6,18.0,14.6,11.0,85,77,72,30.24,30.06,13,4,19,0.00
2013-2-22,39.6,30.7,19.2,36.0,25.7,14.0,89,81,69,30.18,29.77,19,6,27,0.03
2013-2-23,37.8,33.8,30.5,31.0,27.1,23.0,87,76,66,29.81,29.73,12,5,19,0.00
2013-2-24,33.5,30.3,27.1,28.0,24.7,22.0,86,80,74,30.00,29.73,11,4,18,0.00
2013-2-25,41.1,30.8,22.2,28.0,23.8,21.0,93,77,53,30.08,29.93,10,3,13,0.00
2013-2-26,40.3,34.5,26.8,35.0,28.7,22.0,90,80,59,29.95,29.36,16,4,32,0.49
2013-2-27,43.6,38.7,34.7,39.0,35.7,31.0,94,89,77,29.47,29.33,18,6,28,0.14
2013-2-28,35.0,33.6,31.3,33.0,30.7,27.0,94,89,83,29.72,29.41,14,6,19,0.01
2013-3-1,31.4,28.1,25.2,28.0,23.5,21.0,90,83,76,29.88,29.71,19,8,21,0.00
2013-3-2,28.1,25.6,23.6,25.0,21.8,19.0,90,85,78,29.87,29.83,13,6,20,0.00
2013-3-3,26.9,25.0,23.6,23.0,21.0,18.0,91,85,76,29.89,29.83,14,5,17,0.00
2013-3-4,30.9,25.8,19.5,22.0,19.2,17.0,91,76,63,29.99,29.89,11,2,14,0.00
2013-3-5,39.1,27.2,18.7,28.0,20.9,-99.9,92,80,53,29.98,29.58,12,-8,19,0.00
2013-3-6,41.6,34.6,30.6,32.0,29.2,27.0,90,80,66,30.01,29.58,13,4,20,0.00
2013-3-7,37.1,33.2,29.3,33.0,30.3,26.0,93,89,83,30.21,30.00,10,3,14,0.00
2013-3-8,35.9,31.0,25.7,31.0,27.8,24.0,93,88,81,30.31,30.21,8,2,13,0.00
2013-3-9,50.8,37.7,23.0,34.0,28.5,21.0,94,72,44,30.29,29.93,11,3,20,0.00
2013-3-10,69.1,59.5,49.7,38.0,33.5,28.0,51,38,28,29.93,29.66,16,9,24,0.00
2013-3-11,63.0,54.6,42.3,49.0,41.6,35.0,93,65,35,29.67,29.36,23,9,33,0.85
2013-3-12,42.4,36.5,34.1,36.0,30.8,26.0,89,80,71,29.81,29.57,15,6,20,0.00
2013-3-13,34.2,31.2,27.4,27.0,24.2,19.0,90,75,60,29.99,29.73,18,7,25,0.02
2013-3-14,34.3,30.2,26.9,22.0,19.3,16.0,71,64,56,30.09,29.95,16,6,21,0.00
2013-3-15,39.7,35.0,31.9,32.0,28.7,22.0,95,78,64,29.94,29.70,19,5,23,0.07
2013-3-16,32.7,30.6,29.3,32.0,28.7,25.0,96,92,84,29.87,29.54,16,2,16,0.23
2013-3-17,31.4,29.4,25.8,28.0,22.7,17.0,89,77,63,30.09,29.87,12,4,18,0.00
2013-3-18,41.4,33.8,25.4,40.0,29.0,17.0,94,83,69,30.05,29.42,21,7,31,0.16
2013-3-19,37.9,31.5,26.1,36.0,24.0,19.0,95,74,61,29.79,29.53,27,10,33,0.00
2013-3-20,30.9,28.9,25.0,23.0,19.1,16.0,84,67,56,29.80,29.74,13,6,25,0.00
2013-3-21,30.2,24.8,20.5,27.0,19.6,12.0,91,81,67,29.75,29.70,14,6,22,0.01
2013-3-22,33.8,29.0,24.1,26.0,22.0,19.0,90,75,63,29.86,29.74,18,5,20,0.00
2013-3-23,37.1,28.0,18.4,27.0,21.7,16.0,89,78,62,29.94,29.84,9,2,13,0.00
2013-3-24,34.5,30.2,22.9,27.0,23.3,20.0,92,76,55,29.89,29.39,12,3,21,0.00
2013-3-25,35.3,32.7,30.4,32.0,30.3,27.0,95,91,78,29.66,29.33,11,3,15,0.06
2013-3-26,38.8,34.7,32.9,33.0,32.1,31.0,95,90,79,29.93,29.67,9,2,13,0.10
2013-3-27,41.6,36.6,33.0,32.0,30.3,27.0,95,79,58,30.01,29.91,13,5,21,0.01
2013-3-28,41.7,37.4,34.2,33.0,31.0,29.0,92,78,63,30.10,29.99,9,3,12,0.01
2013-3-29,46.1,40.7,31.9,32.0,28.6,23.0,77,63,43,30.11,30.04,10,3,15,0.00
2013-3-30,54.8,41.2,27.8,28.0,25.3,22.0,85,57,31,30.07,29.81,10,3,13,0.00
2013-3-31,53.8,49.4,46.1,45.0,33.5,22.0,85,57,36,29.80,29.47,14,7,25,0.01
2013-4-1,48.3,36.5,31.3,42.0,23.5,15.0,85,61,42,29.90,29.46,20,7,22,0.02
2013-4-2,38.6,32.8,28.3,25.0,17.8,13.0,69,55,40,30.04,29.90,13,6,22,0.00
2013-4-3,35.2,31.9,27.1,25.0,16.5,13.0,68,54,43,30.29,30.04,15,5,22,0.00
2013-4-4,52.8,36.6,25.3,23.0,15.5,6.0,67,45,15,30.24,29.79,11,4,14,0.00
2013-4-5,42.4,37.9,30.5,32.0,25.2,17.0,80,61,39,30.05,29.76,15,6,19,0.00
2013-4-6,56.0,41.2,24.2,30.0,16.8,10.0,79,43,18,30.12,29.74,17,5,23,0.00
2013-4-7,66.6,56.6,43.6,45.0,36.0,15.0,73,49,20,29.85,29.57,24,9,33,0.00
2013-4-8,71.7,56.4,35.3,55.0,43.6,32.0,89,65,45,29.88,29.60,23,7,33,0.02
2013-4-9,78.9,57.2,46.0,57.0,46.3,41.0,87,69,46,29.93,29.63,12,3,18,0.00
2013-4-10,62.0,47.6,40.5,57.0,45.2,39.0,96,91,71,29.80,29.64,21,3,38,0.70
2013-4-11,41.7,40.3,37.9,40.0,38.9,37.0,96,94,91,29.80,29.44,10,3,17,0.27
2013-4-12,54.6,42.5,39.5,54.0,39.1,34.0,98,88,71,29.66,29.27,19,6,27,0.35
2013-4-13,44.3,40.8,37.7,39.0,34.9,31.0,90,79,66,29.85,29.66,15,7,25,0.07
2013-4-14,53.0,43.5,34.3,38.0,33.9,30.0,85,70,55,29.97,29.80,7,2,11,0.00
2013-4-15,71.0,62.5,51.3,51.0,45.0,36.0,68,54,45,29.85,29.75,19,9,24,0.00
2013-4-16,66.3,56.3,48.6,59.0,50.9,47.0,95,82,66,30.02,29.73,19,7,27,0.18
2013-4-17,56.6,50.6,43.4,48.0,39.4,32.0,96,68,45,30.14,29.89,15,4,19,0.00
2013-4-18,84.8,68.7,46.7,62.0,55.5,39.0,86,65,36,29.89,29.46,21,10,33,0.00
2013-4-19,72.8,53.9,41.4,61.0,43.5,28.0,92,69,52,29.64,29.15,26,11,32,0.23
2013-4-20,41.4,38.0,33.8,32.0,27.4,23.0,87,66,51,30.26,29.64,17,7,27,0.03
2013-4-21,43.9,37.6,28.1,29.0,26.2,23.0,89,65,47,30.48,30.27,14,3,20,0.00
2013-4-22,60.4,50.5,34.8,40.0,31.4,25.0,74,49,34,30.33,30.04,15,6,22,0.00
2013-4-23,72.7,60.6,46.4,42.0,35.3,27.0,59,40,28,30.05,29.68,21,10,29,0.00
2013-4-24,65.5,47.8,37.1,54.0,42.7,35.0,94,83,48,29.97,29.51,16,7,25,0.42
2013-4-25,52.3,43.2,34.0,41.0,34.3,29.0,87,72,44,30.18,29.98,19,6,26,0.03
2013-4-26,54.2,44.3,31.1,37.0,32.1,28.0,95,66,39,30.32,30.18,10,3,13,0.00
2013-4-27,65.2,54.3,39.9,41.0,35.4,31.0,78,51,29,30.23,29.93,14,4,17,0.00
2013-4-28,60.5,57.2,54.6,55.0,47.1,37.0,92,71,42,29.92,29.67,13,6,25,0.06
2013-4-29,65.5,59.2,56.2,57.0,53.2,49.0,93,81,59,29.80,29.67,12,4,20,0.02
2013-4-30,75.3,64.8,54.1,58.0,54.3,52.0,93,71,46,29.93,29.80,14,6,21,0.00
2013-5-1,80.4,69.1,58.0,57.0,52.2,48.0,77,57,35,30.06,29.93,20,7,25,0.00
2013-5-2,79.0,69.0,60.1,48.0,40.1,31.0,48,36,20,30.10,29.96,15,6,21,0.00
2013-5-3,77.7,68.8,60.0,45.0,38.6,32.0,48,34,21,29.99,29.89,18,9,27,0.00
2013-5-4,73.1,63.3,53.8,45.0,39.8,33.0,69,44,24,29.97,29.87,16,6,23,0.00
2013-5-5,77.4,65.6,54.3,46.0,37.7,24.0,72,39,17,29.92,29.80,15,4,21,0.00
2013-5-6,73.4,63.6,53.0,51.0,40.6,25.0,65,44,24,29.87,29.77,16,4,23,0.00
2013-5-7,73.9,65.1,56.2,56.0,53.3,51.0,85,67,46,29.85,29.76,10,2,17,0.00
2013-5-8,71.9,62.8,54.2,56.0,54.5,52.0,92,75,56,29.80,29.74,8,2,14,0.00
2013-5-9,76.5,64.7,53.4,56.0,50.1,37.0,95,64,24,29.79,29.73,8,2,12,0.00
2013-5-10,74.1,64.9,48.6,64.0,55.6,41.0,93,74,38,29.74,29.55,13,6,23,0.61
2013-5-11,55.7,48.5,43.7,49.0,44.7,39.0,95,87,73,29.70,29.61,10,4,22,0.04
2013-5-12,49.9,45.0,41.0,39.0,33.6,29.0,82,65,50,29.90,29.70,18,6,26,0.00
2013-5-13,49.2,42.5,37.0,32.0,27.8,25.0,77,57,40,30.02,29.89,13,4,19,0.00
2013-5-14,65.1,51.7,36.3,43.0,34.9,25.0,78,54,42,29.99,29.61,21,7,30,0.00
2013-5-15,83.5,69.8,56.8,60.0,52.4,41.0,76,56,33,29.62,29.47,17,7,28,0.02
2013-5-16,79.1,65.9,51.2,53.0,45.5,33.0,91,54,19,29.78,29.55,7,2,14,0.00
2013-5-17,68.1,61.0,50.2,51.0,45.1,40.0,76,57,39,29.96,29.79,13,2,17,0.00
2013-5-18,77.2,65.9,55.0,56.0,49.3,44.0,72,56,41,29.96,29.83,10,2,16,0.00
2013-5-19,82.4,71.8,60.5,65.0,61.4,51.0,85,71,51,29.86,29.73,16,6,22,0.00
2013-5-20,88.1,77.1,66.6,69.0,65.8,62.0,88,69,50,29.77,29.63,14,6,20,0.00
2013-5-21,86.4,77.9,70.4,69.0,66.7,60.0,89,70,47,29.67,29.54,15,6,22,0.06
2013-5-22,86.2,76.9,66.5,65.0,62.7,60.0,90,63,44,29.60,29.46,18,7,35,0.34
2013-5-23,70.1,59.2,43.3,64.0,55.6,42.0,94,88,71,29.84,29.51,17,6,23,0.17
2013-5-24,45.7,43.2,40.8,42.0,35.5,32.0,91,75,63,30.16,29.85,16,8,23,0.01
2013-5-25,58.0,47.6,36.0,41.0,37.4,33.0,94,70,43,30.21,30.10,12,4,18,0.00
2013-5-26,62.9,49.8,35.0,43.0,37.3,33.0,94,66,37,30.16,30.07,8,2,13,0.00
2013-5-27,65.0,53.2,40.0,49.0,42.0,35.0,92,69,35,30.10,29.87,12,4,17,0.03
2013-5-28,79.3,65.6,52.8,70.0,61.2,49.0,95,86,66,29.89,29.67,14,6,24,0.92
2013-5-29,86.9,78.4,71.0,67.0,63.5,61.0,82,61,46,29.81,29.69,17,5,24,0.03
2013-5-30,88.2,80.1,70.8,68.0,62.9,56.0,76,57,34,29.92,29.80,13,5,17,0.00
2013-5-31,87.9,75.9,66.9,69.0,64.9,62.0,95,70,46,29.84,29.73,14,6,22,0.68
2013-6-1,84.8,73.1,66.9,69.0,66.3,64.0,97,80,57,29.74,29.52,18,7,25,1.22
2013-6-2,76.3,69.2,58.2,67.0,61.2,52.0,97,77,57,29.74,29.52,15,5,22,0.47
2013-6-3,60.4,54.9,47.7,51.0,45.1,40.0,87,70,51,29.91,29.74,10,4,16,0.00
2013-6-4,64.0,55.5,45.7,52.0,43.9,40.0,88,67,43,30.01,29.91,12,3,13,0.00
2013-6-5,72.4,64.4,48.5,54.0,49.0,44.0,88,59,42,29.99,29.77,11,4,18,0.00
2013-6-6,59.9,57.2,54.2,59.0,54.6,50.0,97,91,71,29.76,29.62,10,2,14,0.38
2013-6-7,58.6,55.9,54.1,56.0,54.7,54.0,98,95,89,29.71,29.65,7,2,11,0.00
2013-6-8,68.6,60.8,55.7,57.0,54.7,51.0,95,81,57,29.91,29.70,5,1,10,0.00
2013-6-9,79.2,67.8,53.5,62.0,57.2,50.0,90,70,53,29.96,29.77,10,2,15,0.06
2013-6-10,73.3,67.1,63.4,69.0,62.0,-99.9,97,88,69,29.76,29.53,13,-19,17,0.45
2013-6-11,75.9,68.3,63.7,65.0,63.7,62.0,97,86,65,29.70,29.55,8,2,20,0.01
2013-6-12,75.1,69.6,62.3,68.0,65.2,61.0,96,86,74,29.72,29.49,10,2,37,1.24
2013-6-13,69.6,64.8,60.3,68.0,61.1,57.0,97,88,69,29.66,29.23,19,6,32,0.40
2013-6-14,68.3,61.8,54.6,59.0,56.2,52.0,93,83,58,29.89,29.66,10,3,14,0.00
2013-6-15,79.6,65.6,48.9,60.0,53.0,47.0,95,68,37,29.94,29.78,9,2,18,0.00
2013-6-16,78.5,72.4,65.3,68.0,63.9,58.0,91,75,65,29.77,29.61,16,6,23,0.04
2013-6-17,82.4,72.1,62.3,69.0,63.0,60.0,92,75,51,29.75,29.66,18,4,26,0.13
2013-6-18,70.4,64.8,57.1,63.0,57.8,49.0,93,79,60,29.84,29.66,14,3,20,0.00
2013-6-19,69.7,61.0,50.1,56.0,50.1,45.0,95,70,45,29.99,29.84,10,3,17,0.00
2013-6-20,76.4,65.1,52.5,55.0,49.1,41.0,85,59,29,30.05,29.97,9,2,12,0.00
2013-6-21,86.1,72.1,57.8,64.0,56.4,49.0,75,59,41,30.05,29.92,10,2,12,0.00
2013-6-22,90.0,80.7,71.1,72.0,65.8,59.0,79,61,52,29.94,29.79,14,5,17,0.00
2013-6-23,90.2,80.7,70.4,71.0,68.2,66.0,88,67,45,29.89,29.79,10,4,18,0.00
2013-6-24,88.5,80.5,70.0,69.0,66.3,63.0,78,63,49,29.88,29.74,10,4,16,0.00
2013-6-25,90.9,77.0,69.0,72.0,67.7,62.0,93,74,38,29.78,29.62,16,5,28,0.58
2013-6-26,82.8,74.6,67.3,71.0,67.5,66.0,95,80,62,29.69,29.57,10,4,15,0.09
2013-6-27,80.7,72.3,68.5,70.0,68.0,66.0,95,87,62,29.57,29.44,7,2,15,0.02
2013-6-28,76.8,70.6,64.8,68.0,65.9,63.0,97,85,73,29.44,29.30,10,2,15,0.00
2013-6-29,75.5,68.4,64.2,67.0,64.5,63.0,96,87,74,29.50,29.31,9,2,14,0.57
2013-6-30,73.7,68.5,63.0,66.0,63.3,61.0,96,84,69,29.70,29.50,13,3,17,0.00
2013-7-1,72.1,67.6,65.0,67.0,64.1,62.0,93,88,84,29.81,29.67,9,2,12,0.00
2013-7-2,77.5,69.5,63.4,68.0,64.2,61.0,92,83,72,29.86,29.77,9,2,15,0.00
2013-7-3,86.3,74.9,64.7,72.0,68.4,63.0,96,81,55,29.92,29.84,9,3,15,0.03
2013-7-4,81.5,75.0,69.7,72.0,68.9,67.0,94,82,66,29.95,29.89,11,5,17,0.07
2013-7-5,78.6,73.1,68.7,70.0,68.4,67.0,96,85,73,29.93,29.88,13,3,18,0.08
2013-7-6,84.2,74.8,69.2,74.0,69.8,67.0,94,85,70,29.94,29.79,7,2,11,0.06
2013-7-7,80.9,74.9,70.4,71.0,67.7,65.0,92,79,63,29.86,29.77,15,4,16,0.00
2013-7-8,87.3,74.5,66.9,72.0,67.3,64.0,96,79,53,29.88,29.80,10,3,18,0.79
2013-7-9,83.7,75.6,69.5,75.0,71.6,68.0,96,88,74,29.83,29.70,11,4,15,0.11
2013-7-10,87.9,75.0,69.6,77.0,70.7,67.0,95,86,63,29.73,29.54,14,4,21,0.79
2013-7-11,73.2,69.1,63.2,66.0,60.7,57.0,94,75,61,29.83,29.70,10,3,14,0.00
2013-7-12,78.1,68.7,58.5,68.0,62.9,57.0,96,82,65,29.92,29.83,12,2,16,0.00
2013-7-13,82.3,72.1,60.7,70.0,65.0,59.0,95,79,59,30.02,29.92,10,1,14,0.00
2013-7-14,86.2,77.0,66.7,74.0,70.2,66.0,96,80,62,30.06,30.00,10,2,12,0.00
2013-7-15,88.6,81.0,74.4,75.0,72.4,70.0,91,76,56,30.10,30.02,6,2,10,0.00
2013-7-16,89.3,81.4,73.0,76.0,73.8,71.0,94,78,63,30.09,30.02,7,2,10,0.00
2013-7-17,91.9,83.5,75.9,77.0,74.3,73.0,90,75,55,30.07,29.93,7,2,11,0.00
2013-7-18,92.3,84.1,76.5,78.0,74.8,72.0,92,75,55,29.94,29.77,7,2,14,0.00
2013-7-19,95.5,85.4,71.2,76.0,73.4,68.0,89,69,47,29.77,29.56,19,6,33,0.06
2013-7-20,79.7,72.6,67.3,73.0,69.4,66.0,97,90,75,29.71,29.55,13,3,25,3.64
2013-7-21,80.7,73.3,66.9,70.0,67.4,64.0,97,83,66,29.77,29.69,11,2,12,0.00
2013-7-22,76.0,69.4,63.1,73.0,66.6,61.0,95,90,80,29.76,29.57,3,0,5,0.09
2013-7-23,82.8,72.3,64.8,72.0,66.7,60.0,97,83,61,29.60,29.43,16,4,25,0.04
2013-7-24,68.5,64.1,56.3,60.0,54.4,52.0,90,71,58,29.84,29.61,14,5,19,0.00
2013-7-25,74.6,64.3,54.3,56.0,51.1,-99.9,90,66,46,29.91,29.83,12,-8,18,0.00
2013-7-26,77.2,67.2,55.4,62.0,57.3,52.0,90,72,53,29.91,29.76,8,2,11,0.00
2013-7-27,71.6,68.1,65.3,65.0,62.4,59.0,92,82,71,29.76,29.58,13,5,17,0.12
2013-7-28,72.2,65.3,58.8,62.0,53.9,47.0,91,69,47,29.80,29.63,14,5,17,0.21
2013-7-29,71.4,63.7,58.1,60.0,55.6,52.0,90,76,53,29.99,29.80,9,4,18,0.00
2013-7-30,75.1,66.0,56.1,61.0,58.4,54.0,95,78,60,30.04,29.95,8,2,12,0.00
2013-7-31,78.8,70.4,62.2,66.0,61.8,58.0,88,75,56,29.96,29.70,12,4,15,0.00
2013-8-1,75.4,70.6,65.2,66.0,64.8,61.0,94,82,69,29.71,29.62,11,3,16,0.50
2013-8-2,77.1,69.3,61.6,66.0,60.3,55.0,92,75,48,29.76,29.66,13,4,21,0.00
2013-8-3,75.9,71.1,62.4,68.0,61.9,54.0,90,74,48,29.79,29.69,12,3,16,0.00
2013-8-4,70.6,66.1,62.2,61.0,56.7,49.0,91,72,58,29.93,29.79,14,4,18,0.02
2013-8-5,72.1,62.2,51.8,58.0,52.6,48.0,91,73,42,29.94,29.81,6,2,9,0.00
2013-8-6,78.3,69.8,59.3,62.0,58.3,54.0,86,68,48,29.82,29.74,10,4,14,0.00
2013-8-7,80.0,72.7,68.6,70.0,65.6,60.0,94,79,70,29.74,29.66,14,5,28,1.05
2013-8-8,78.0,74.2,70.0,74.0,70.4,65.0,94,88,83,29.76,29.69,9,4,15,0.00
2013-8-9,75.1,69.6,63.9,68.0,63.0,55.0,96,80,49,29.80,29.70,7,2,14,0.60
2013-8-10,74.8,68.5,61.1,62.0,58.9,56.0,93,72,54,29.93,29.80,7,2,13,0.00
2013-8-11,78.8,70.0,59.2,61.0,59.0,56.0,91,70,49,29.94,29.83,10,2,13,0.00
2013-8-12,74.1,69.0,63.7,68.0,63.6,60.0,91,82,70,29.86,29.62,6,2,11,0.03
2013-8-13,72.1,65.5,61.0,67.0,58.4,47.0,96,79,58,29.79,29.59,13,4,20,0.72
2013-8-14,68.3,62.0,55.2,56.0,51.8,47.0,89,70,54,29.96,29.79,14,6,18,0.00
2013-8-15,72.8,62.1,52.9,57.0,53.0,50.0,91,74,52,30.00,29.93,8,2,12,0.00
2013-8-16,73.3,63.3,52.8,59.0,55.1,50.0,93,76,53,30.01,29.93,5,2,10,0.00
2013-8-17,79.7,66.8,54.5,63.0,57.5,53.0,96,75,46,30.06,30.00,8,1,13,0.00
2013-8-18,78.5,68.9,59.9,66.0,61.2,55.0,88,77,54,30.02,29.92,6,2,10,0.00
2013-8-19,79.2,70.3,63.8,68.0,63.5,57.0,95,80,52,29.93,29.87,7,2,9,0.00
2013-8-20,84.2,73.0,63.8,66.0,61.6,57.0,84,69,49,29.97,29.88,6,2,9,0.00
2013-8-21,85.4,74.8,65.2,67.0,63.9,61.0,86,70,48,29.98,29.82,9,2,11,0.00
2013-8-22,82.1,74.8,69.7,70.0,67.8,65.0,91,79,64,29.86,29.77,12,3,14,0.00
2013-8-23,79.1,71.9,60.3,68.0,62.9,57.0,95,75,50,29.99,29.80,10,2,15,0.00
2013-8-24,79.1,66.9,55.7,60.0,56.6,54.0,92,72,43,30.12,29.99,11,2,14,0.00
2013-8-25,84.5,72.7,59.3,65.0,59.7,55.0,91,66,45,30.13,29.98,7,3,13,0.00
2013-8-26,88.1,78.4,68.7,70.0,63.3,59.0,80,61,44,29.99,29.77,15,5,20,0.03
2013-8-27,82.9,76.1,70.4,73.0,71.3,68.0,95,85,68,29.79,29.68,9,3,25,0.75
2013-8-28,77.8,74.2,71.2,74.0,71.9,70.0,96,92,83,29.76,29.59,12,3,16,0.34
2013-8-29,82.0,74.2,67.5,74.0,69.6,66.0,98,86,64,29.86,29.76,11,2,13,0.00
2013-8-30,86.3,76.1,64.1,71.0,68.0,63.0,97,78,58,29.81,29.56,7,2,10,0.00
2013-8-31,80.4,75.4,69.5,73.0,70.2,68.0,95,84,73,29.63,29.52,10,3,16,0.00
2013-9-1,81.4,73.0,67.6,73.0,69.8,67.0,97,90,72,29.62,29.53,5,1,10,0.00
2013-9-2,77.1,72.4,68.3,71.0,67.6,60.0,95,85,70,29.65,29.52,13,3,14,0.00
2013-9-3,68.2,64.1,58.7,61.0,56.5,55.0,87,77,65,29.83,29.65,13,4,16,0.00
2013-9-4,76.8,67.2,57.5,63.0,58.0,54.0,88,74,52,29.91,29.82,10,3,15,0.00
2013-9-5,71.5,65.3,54.8,66.0,54.6,47.0,85,69,53,30.04,29.83,12,5,17,0.00
2013-9-6,70.1,60.0,49.8,54.0,50.1,45.0,93,72,45,30.09,29.92,9,3,12,0.00
2013-9-7,81.6,70.0,56.5,67.0,57.0,48.0,83,65,44,29.91,29.70,10,3,15,0.00
2013-9-8,73.4,68.1,54.8,68.0,61.4,52.0,93,80,60,29.87,29.69,14,3,18,0.00
2013-9-9,79.3,67.6,52.4,71.0,61.4,50.0,91,81,71,29.87,29.76,12,3,22,0.00
2013-9-10,97.6,83.4,75.4,75.0,67.8,-99.9,83,64,37,29.83,29.75,14,-16,20,0.00
2013-9-11,94.8,83.7,73.6,75.0,70.9,66.0,83,67,40,29.86,29.72,12,4,19,0.00
2013-9-12,73.9,69.9,59.6,70.0,65.6,57.0,94,86,75,29.75,29.61,15,3,33,0.61
2013-9-13,61.8,58.4,54.1,59.0,51.1,43.0,93,77,64,29.89,29.66,20,8,25,0.38
2013-9-14,61.4,55.2,48.8,49.0,45.6,41.0,90,71,59,29.99,29.89,9,3,14,0.00
2013-9-15,69.2,59.3,50.3,57.0,50.2,46.0,94,74,47,29.98,29.87,8,3,13,0.01
2013-9-16,63.1,57.9,52.1,58.0,53.6,49.0,96,86,69,30.15,29.92,13,3,19,0.09
2013-9-17,69.4,55.9,43.4,50.0,43.9,38.0,92,68,32,30.24,30.06,11,2,12,0.00
2013-9-18,76.0,63.3,52.0,59.0,52.0,44.0,85,67,49,30.05,29.88,9,4,15,0.00
2013-9-19,77.9,68.5,60.0,67.0,63.6,58.0,95,84,68,29.89,29.76,13,5,16,0.00
2013-9-20,81.2,72.9,66.4,72.0,67.9,64.0,95,85,72,29.79,29.55,15,7,20,0.37
2013-9-21,69.8,63.5,56.6,68.0,61.1,54.0,97,92,74,29.61,29.46,11,3,22,1.32
2013-9-22,60.7,55.3,49.5,55.0,47.5,43.0,93,75,65,29.87,29.61,15,4,19,0.06
2013-9-23,58.9,52.5,45.8,49.0,46.6,43.0,94,81,63,30.00,29.86,6,1,11,0.00
2013-9-24,64.7,53.2,42.7,54.0,47.3,41.0,95,81,64,29.97,29.81,7,2,16,0.00
2013-9-25,72.7,56.1,44.6,58.0,50.5,43.0,96,83,49,29.82,29.74,10,1,12,0.00
2013-9-26,70.2,57.9,46.3,55.0,50.1,45.0,97,78,47,29.94,29.78,9,2,16,0.00
2013-9-27,70.9,59.3,49.4,58.0,53.2,48.0,97,82,56,30.03,29.93,10,1,16,0.00
2013-9-28,75.6,64.9,53.5,58.0,54.9,52.0,94,72,47,30.03,29.90,11,5,17,0.00
2013-9-29,73.3,65.1,56.8,62.0,57.4,51.0,91,76,64,29.89,29.78,14,6,22,0.00
2013-9-30,66.6,63.1,59.5,62.0,60.6,58.0,96,91,85,29.81,29.77,8,3,13,0.04
2013-10-1,77.4,62.2,60.0,64.0,49.1,-99.9,94,75,60,29.87,29.76,8,-71,12,0.00
2013-10-2,74.4,67.0,58.4,67.0,61.5,54.0,93,83,59,29.88,29.79,10,2,13,0.00
2013-10-3,78.5,68.8,56.7,69.0,62.1,53.0,90,79,68,29.88,29.78,13,3,15,0.00
2013-10-4,77.7,71.6,68.2,68.0,66.3,65.0,91,83,69,29.84,29.79,7,3,18,0.00
2013-10-5,79.4,70.4,65.5,70.0,67.2,64.0,96,90,67,29.85,29.72,8,2,15,0.20
2013-10-6,79.7,72.5,58.1,69.0,66.4,55.0,93,82,65,29.73,29.46,22,6,27,0.42
2013-10-7,59.3,55.5,49.1,55.0,48.0,43.0,95,77,59,29.93,29.51,18,6,21,0.80
2013-10-8,66.4,56.0,46.9,52.0,47.1,43.0,94,74,50,30.12,29.93,10,2,12,0.00
2013-10-9,70.4,57.8,49.5,52.0,45.6,41.0,90,66,35,30.15,30.04,14,3,14,0.00
2013-10-10,66.5,54.3,43.3,53.0,45.7,40.0,93,74,47,30.07,29.93,9,1,13,0.00
2013-10-11,74.0,56.7,45.3,57.0,49.6,44.0,95,79,45,29.96,29.88,9,1,11,0.00
2013-10-12,75.3,62.5,49.4,64.0,55.9,45.0,92,79,63,29.94,29.87,6,1,11,0.00
2013-10-13,68.4,64.1,59.2,62.0,59.6,57.0,93,85,78,30.10,29.92,11,3,16,0.00
2013-10-14,61.3,55.3,45.8,56.0,47.7,43.0,94,76,59,30.18,30.08,16,3,16,0.00
2013-10-15,66.4,56.2,43.5,61.0,52.5,42.0,96,87,77,30.07,29.73,14,4,19,0.00
2013-10-16,69.9,62.0,56.2,63.0,57.7,48.0,94,86,68,29.74,29.59,13,5,22,0.56
2013-10-17,60.5,52.2,45.8,51.0,47.1,44.0,94,83,62,29.72,29.57,13,4,22,0.13
2013-10-18,64.2,54.6,46.0,47.0,44.9,42.0,88,71,47,29.79,29.65,14,7,21,0.06
2013-10-19,55.2,47.7,43.1,46.0,43.7,40.0,93,86,67,29.72,29.55,13,5,19,0.77
2013-10-20,59.8,49.6,40.7,42.0,39.6,37.0,88,70,46,29.79,29.70,14,6,22,0.00
2013-10-21,64.7,55.7,49.9,52.0,43.4,40.0,92,65,46,29.77,29.62,22,8,28,0.18
2013-10-22,51.0,46.0,41.1,48.0,35.4,32.0,90,67,54,29.76,29.64,14,4,22,0.03
2013-10-23,47.6,42.4,35.0,41.0,34.4,28.0,94,74,51,29.74,29.60,12,4,21,0.37
2013-10-24,39.6,36.2,33.8,36.0,33.9,32.0,94,91,85,29.98,29.73,14,6,17,0.86
2013-10-25,47.4,41.4,35.3,40.0,34.6,30.0,95,78,59,30.15,29.96,12,4,18,0.07
2013-10-26,47.1,42.4,37.5,40.0,30.7,27.0,90,64,53,30.02,29.68,22,8,27,0.08
2013-10-27,50.8,45.1,40.3,37.0,35.2,33.0,84,69,54,29.91,29.79,12,3,17,0.00
2013-10-28,54.2,45.3,39.1,44.0,38.0,34.0,88,76,63,30.18,29.89,7,2,13,0.00
2013-10-29,55.5,44.1,33.6,41.0,36.9,31.0,93,77,50,30.25,30.08,10,1,12,0.00
2013-10-30,63.7,51.6,39.9,53.0,42.6,37.0,89,73,50,30.07,29.84,7,2,14,0.00
2013-10-31,67.2,62.2,58.5,60.0,57.9,53.0,93,86,73,29.83,29.07,25,12,39,0.32
2013-11-1,63.6,54.7,50.0,59.0,47.4,42.0,91,76,67,29.50,29.01,26,8,40,0.11
2013-11-2,50.1,47.0,45.0,46.0,43.1,38.0,94,86,74,29.85,29.47,12,4,18,0.81
2013-11-3,44.7,39.8,32.1,38.0,32.0,26.0,80,74,62,30.32,29.85,9,2,13,0.00
2013-11-4,45.9,38.5,29.2,27.0,22.8,20.0,83,55,37,30.38,30.21,16,5,24,0.00
2013-11-5,59.7,52.0,44.6,45.0,36.7,27.0,71,56,50,30.25,30.08,16,6,22,0.00
2013-11-6,66.4,57.6,50.8,57.0,45.7,34.0,93,66,52,30.07,29.70,23,10,28,0.23
2013-11-7,50.8,43.1,38.7,48.0,35.8,28.0,93,76,58,29.93,29.74,13,6,24,0.36
2013-11-8,42.4,40.0,34.7,35.0,29.3,26.0,88,66,54,30.11,29.90,14,5,26,0.00
2013-11-9,58.3,47.9,34.6,44.0,33.8,27.0,74,59,43,30.08,29.69,20,9,36,0.00
2013-11-10,53.5,46.9,44.5,43.0,34.2,29.0,73,62,52,30.08,29.73,21,7,28,0.00
2013-11-11,48.5,40.4,30.9,40.0,32.9,30.0,95,76,52,30.07,29.85,17,7,21,0.45
2013-11-12,34.9,32.2,30.3,30.0,24.3,17.0,95,73,57,30.34,30.06,18,9,25,0.02
2013-11-13,38.2,33.5,30.2,25.0,20.6,17.0,76,60,48,30.36,30.09,20,6,20,0.00
2013-11-14,51.8,41.6,31.8,23.0,20.2,17.0,64,44,26,30.10,29.90,18,9,26,0.00
2013-11-15,52.2,47.2,41.6,32.0,25.0,21.0,55,42,34,29.95,29.88,14,6,19,0.00
2013-11-16,60.7,53.3,45.1,52.0,44.0,32.0,78,71,56,30.00,29.71,20,8,26,0.00
2013-11-17,64.6,61.1,57.2,58.0,54.9,51.0,89,80,70,29.71,29.20,28,15,43,0.25
2013-11-18,45.0,41.8,37.0,37.0,32.3,25.0,78,69,62,29.93,29.57,29,10,33,0.00
2013-11-19,37.8,36.0,28.4,28.0,26.2,24.0,87,68,59,30.26,29.93,12,4,17,0.00
2013-11-20,47.6,37.3,25.4,26.0,20.1,15.0,90,56,29,30.31,30.14,16,4,25,0.00
2013-11-21,46.4,41.9,38.4,41.0,31.6,16.0,88,69,37,30.21,30.03,16,7,22,0.05
2013-11-22,49.0,44.3,36.3,48.0,41.8,29.0,96,91,74,30.15,29.94,18,6,23,0.09
2013-11-23,36.2,30.6,22.1,29.0,20.2,7.0,87,66,52,30.25,30.05,27,9,33,0.00
2013-11-24,26.2,23.2,21.3,16.0,11.3,7.0,72,61,52,30.39,30.25,19,8,28,0.00
2013-11-25,35.8,27.5,19.6,24.0,14.7,11.0,78,61,40,30.32,30.01,18,9,27,0.00
2013-11-26,35.6,33.2,31.6,31.0,27.8,19.0,95,81,51,30.01,29.69,11,3,16,0.16
2013-11-27,34.1,28.9,25.2,32.0,22.7,17.0,94,78,67,29.98,29.64,23,8,25,0.00
2013-11-28,29.4,26.9,23.4,21.0,18.9,16.0,89,72,61,30.27,29.98,11,5,18,0.02
2013-11-29,32.5,29.0,25.3,24.0,21.8,19.0,84,74,66,30.51,30.27,7,1,10,0.00
2013-11-30,41.9,33.7,26.6,29.0,21.1,-99.9,74,64,54,30.46,29.99,17,-14,23,0.00
2013-12-1,43.3,39.6,35.5,32.0,30.2,29.0,82,69,63,29.99,29.80,14,4,17,0.00
2013-12-2,40.6,37.1,30.8,35.0,31.9,28.0,89,82,71,29.79,29.70,7,1,9,0.00
2013-12-3,48.3,39.8,28.9,41.0,33.5,27.0,92,78,68,29.76,29.69,10,2,14,0.00
2013-12-4,60.9,52.9,45.6,51.0,44.8,39.0,79,74,69,29.76,29.56,15,6,25,0.00
2013-12-5,63.0,50.1,33.1,56.0,43.8,31.0,91,79,69,29.94,29.52,17,7,32,0.05
2013-12-6,34.7,31.8,26.6,31.0,26.6,21.0,93,82,67,30.18,29.91,7,3,13,0.06
2013-12-7,28.7,25.5,24.0,24.0,17.8,15.0,83,73,66,30.45,30.18,11,4,15,0.00
2013-12-8,29.1,25.6,21.3,25.0,17.9,15.0,86,72,63,30.45,29.89,8,3,17,0.00
2013-12-9,35.1,32.0,26.7,33.0,26.5,18.0,93,80,69,29.98,29.76,23,9,27,0.00
2013-12-10,28.5,25.1,21.5,19.0,13.0,3.0,77,61,35,30.08,29.82,22,9,27,0.00
2013-12-11,25.3,22.1,18.5,22.0,15.5,8.0,90,76,63,30.27,30.07,18,7,24,0.02
2013-12-12,21.1,17.4,13.7,10.0,6.4,1.0,85,63,42,30.29,30.08,22,8,28,0.00
2013-12-13,29.6,24.4,19.5,21.0,15.7,8.0,82,70,61,30.14,30.05,14,5,17,0.00
2013-12-14,30.9,28.1,24.8,30.0,25.9,20.0,95,91,81,30.12,29.51,4,0,8,0.38
2013-12-15,32.0,24.3,17.3,31.0,21.8,13.0,95,90,83,29.88,29.51,22,6,28,0.03
2013-12-16,22.3,17.8,13.3,18.0,11.6,-99.9,88,82,73,30.04,29.86,10,-17,17,0.00
2013-12-17,28.4,26.0,21.5,26.0,22.5,19.0,92,86,78,29.89,29.77,14,6,20,0.02
2013-12-18,31.4,27.5,25.2,25.0,21.6,17.0,87,78,62,30.00,29.82,20,8,26,0.00
2013-12-19,47.9,41.6,31.7,37.0,29.6,19.0,70,63,51,29.86,29.77,18,7,26,0.00
2013-12-20,56.3,49.0,44.9,54.0,44.3,36.0,92,84,66,29.77,29.59,20,10,28,0.23
2013-12-21,58.7,45.9,36.6,55.0,44.1,36.0,97,93,87,29.66,29.36,20,4,22,1.66
2013-12-22,62.7,45.5,35.3,56.0,42.9,34.0,97,90,79,29.80,29.26,23,8,34,0.23
2013-12-23,38.5,33.5,29.1,37.0,29.0,20.0,95,84,69,30.15,29.81,14,5,20,0.01
2013-12-24,28.8,21.8,19.0,23.0,14.9,10.0,90,75,61,30.39,30.12,13,6,23,0.00
2013-12-25,28.1,22.6,16.8,22.0,14.2,11.0,83,71,57,30.37,30.03,17,5,24,0.00
2013-12-26,31.2,28.8,25.9,28.0,22.9,19.0,91,79,68,30.18,29.93,16,6,27,0.03
2013-12-27,39.8,35.6,26.8,31.0,27.6,20.0,77,73,69,30.18,30.00,15,5,19,0.00
2013-12-28,55.2,46.0,39.1,35.0,32.1,29.0,71,59,43,30.00,29.79,17,8,22,0.00
2013-12-29,45.7,41.3,26.4,39.0,30.8,24.0,92,68,43,29.79,29.52,15,7,20,0.00
2013-12-30,26.3,20.3,18.3,24.0,16.3,12.0,92,84,77,30.11,29.78,10,4,15,0.00
2013-12-31,22.0,20.0,17.8,19.0,15.9,11.0,91,84,71,30.18,29.91,19,7,23,0.04
2014-1-1,23.4,20.9,19.8,21.0,17.1,-99.9,92,88,85,30.22,30.01,9,-9,11,0.10
2014-1-2,22.3,18.1,12.1,20.0,16.1,10.0,93,92,88,30.01,29.73,20,7,28,0.13